Time;durP1;ratioP1;P1;durP2;ratioP2;P2;SDS_P1;SDS_P2;PMS_P1;PMS_P2;Temp;Humidity;BMP_temperature;BMP_pressure;BME280_temperature;BME280_humidity;BME280_pressure;Samples;Min_cycle;Max_cycle;Signal;HPM_P1;HPM_P2
2022/03/25 00:00:36;;;;;;;36.42;20.40;;;;;;;;;;5034715;28;20033;-74
2022/03/25 00:03:05;;;;;;;34.28;20.42;;;10.40;81.70;;;;;;5034771;28;20129;-70
2022/03/25 00:05:31;;;;;;;35.40;19.48;;;10.00;84.20;;;;;;5034743;28;20405;-78
2022/03/25 00:07:56;;;;;;;33.30;18.35;;;10.00;84.50;;;;;;5035054;28;20679;-78
2022/03/25 00:10:22;;;;;;;34.85;19.83;;;10.10;82.80;;;;;;5034845;28;20049;-70
2022/03/25 00:12:48;;;;;;;34.33;19.88;;;10.20;83.00;;;;;;5034674;28;20037;-72
2022/03/25 00:15:15;;;;;;;35.17;20.50;;;9.80;85.20;;;;;;5034649;28;20045;-72
2022/03/25 00:17:41;;;;;;;37.15;20.33;;;9.70;84.70;;;;;;5034494;28;20084;-78
2022/03/25 00:20:07;;;;;;;35.05;19.83;;;9.90;84.80;;;;;;5034448;28;20647;-78
2022/03/25 00:22:33;;;;;;;31.77;18.95;;;9.90;85.20;;;;;;5034328;28;20536;-78
2022/03/25 00:24:59;;;;;;;39.78;20.35;;;9.70;86.40;;;;;;5034315;28;20501;-77
2022/03/25 00:27:25;;;;;;;33.70;20.15;;;9.70;86.40;;;;;;5034282;28;20095;-77
2022/03/25 00:29:51;;;;;;;30.17;19.50;;;9.80;85.30;;;;;;5034483;28;20144;-77
2022/03/25 00:32:16;;;;;;;34.33;19.88;;;9.70;85.20;;;;;;5034406;28;20033;-77
2022/03/25 00:34:44;;;;;;;33.10;19.83;;;9.60;86.20;;;;;;5034179;28;20041;-76
2022/03/25 00:37:10;;;;;;;34.70;19.60;;;9.50;86.00;;;;;;5033937;28;20037;-77
2022/03/25 00:39:36;;;;;;;36.03;19.70;;;9.70;86.60;;;;;;5034147;28;20079;-77
2022/03/25 00:42:03;;;;;;;37.13;21.25;;;9.70;85.70;;;;;;5034010;28;20531;-77
2022/03/25 00:44:29;;;;;;;34.15;20.23;;;9.70;86.50;;;;;;5033871;28;20056;-77
2022/03/25 00:46:55;;;;;;;33.03;20.00;;;9.60;86.50;;;;;;5033661;28;20116;-77
2022/03/25 00:49:22;;;;;;;33.20;19.17;;;9.40;86.70;;;;;;5032814;28;20575;-78
2022/03/25 00:51:47;;;;;;;34.03;20.50;;;9.30;87.00;;;;;;5033966;28;20037;-71
2022/03/25 00:54:14;;;;;;;34.53;19.58;;;9.50;86.40;;;;;;5033288;28;20106;-72
2022/03/25 00:56:40;;;;;;;38.88;20.58;;;9.70;85.90;;;;;;5034887;28;20055;-78
2022/03/25 00:59:06;;;;;;;33.40;19.27;;;9.60;85.80;;;;;;5033884;28;20037;-77
2022/03/25 01:01:32;;;;;;;35.58;20.70;;;9.80;84.00;;;;;;5033708;28;20045;-70
2022/03/25 01:03:58;;;;;;;35.45;20.40;;;9.70;84.70;;;;;;5033715;28;20049;-77
2022/03/25 01:06:24;;;;;;;33.42;19.17;;;9.70;84.00;;;;;;5033700;28;20573;-77
2022/03/25 01:08:50;;;;;;;31.67;18.00;;;9.80;84.30;;;;;;5033684;28;20045;-73
2022/03/25 01:11:16;;;;;;;41.55;21.02;;;10.00;82.70;;;;;;5033299;28;20370;-72
2022/03/25 01:13:42;;;;;;;33.08;19.73;;;10.10;83.10;;;;;;5033555;28;20063;-78
2022/03/25 01:16:08;;;;;;;38.33;21.90;;;10.10;82.70;;;;;;5033722;28;20041;-78
2022/03/25 01:18:35;;;;;;;38.50;21.35;;;10.10;83.70;;;;;;5033490;28;20045;-78
2022/03/25 01:21:01;;;;;;;37.88;20.77;;;10.00;84.00;;;;;;5033279;28;20044;-78
2022/03/25 01:23:27;;;;;;;35.63;21.55;;;10.00;84.40;;;;;;5033087;28;20544;-78
2022/03/25 01:25:53;;;;;;;31.70;19.08;;;;;;;;;;5033347;28;20044;-73
2022/03/25 01:28:19;;;;;;;33.85;20.02;;;9.70;84.20;;;;;;5033427;28;20026;-78
2022/03/25 01:30:46;;;;;;;34.53;19.13;;;9.50;84.80;;;;;;5033394;28;20045;-71
2022/03/25 01:33:13;;;;;;;35.53;19.67;;;9.60;84.40;;;;;;5033555;28;20413;-78
2022/03/25 01:35:41;;;;;;;35.08;20.23;;;9.40;84.50;;;;;;5033143;28;20041;-78
2022/03/25 01:38:07;;;;;;;35.97;20.25;;;9.70;83.80;;;;;;5033067;28;20037;-73
2022/03/25 01:40:33;;;;;;;30.98;19.52;;;9.90;82.70;;;;;;5033129;28;20037;-78
2022/03/25 01:42:59;;;;;;;35.15;20.58;;;10.10;81.80;;;;;;5035472;28;20493;-78
2022/03/25 01:45:34;;;;;;;36.00;19.02;;;10.10;82.20;;;;;;5033067;28;20055;-78
2022/03/25 01:48:03;;;;;;;32.17;19.33;;;10.10;82.40;;;;;;5033770;28;20481;-78
2022/03/25 01:50:29;;;;;;;32.85;19.52;;;10.10;83.20;;;;;;5052906;28;20033;-77
2022/03/25 01:52:55;;;;;;;31.58;18.95;;;9.90;83.60;;;;;;5052675;28;20040;-77
2022/03/25 01:55:26;;;;;;;31.42;18.00;;;8.90;85.50;;;;;;5052629;28;20043;-72
2022/03/25 01:57:56;;;;;;;27.20;17.60;;;8.80;85.00;;;;;;5052682;28;20036;-76
2022/03/25 02:00:23;;;;;;;30.40;19.00;;;8.60;86.80;;;;;;5052946;28;20029;-75
2022/03/25 02:02:49;;;;;;;31.45;19.13;;;8.70;86.60;;;;;;5052725;28;20083;-77
2022/03/25 02:05:17;;;;;;;31.73;18.92;;;8.80;86.00;;;;;;5052512;28;20131;-71
2022/03/25 02:07:43;;;;;;;26.08;17.20;;;8.90;85.90;;;;;;5052590;28;20045;-76
2022/03/25 02:10:09;;;;;;;32.22;18.15;;;8.80;86.60;;;;;;5052781;28;20043;-77
2022/03/25 02:12:35;;;;;;;30.08;17.88;;;8.50;87.50;;;;;;5052762;28;20508;-75
2022/03/25 02:15:05;;;;;;;29.75;18.25;;;8.30;87.60;;;;;;5052659;28;20037;-78
2022/03/25 02:17:31;;;;;;;37.70;19.27;;;8.50;86.70;;;;;;5052518;28;20036;-78
2022/03/25 02:19:57;;;;;;;32.45;19.95;;;8.70;85.80;;;;;;5034684;28;20504;-74
2022/03/25 02:22:23;;;;;;;32.97;20.00;;;9.10;84.30;;;;;;5052640;28;20057;-69
2022/03/25 02:24:49;;;;;;;33.75;18.48;;;9.10;84.50;;;;;;5052415;28;20530;-74
2022/03/25 02:27:17;;;;;;;30.63;18.05;;;9.10;84.40;;;;;;5052382;28;20047;-70
2022/03/25 02:29:44;;;;;;;29.58;17.30;;;9.20;83.80;;;;;;5052489;28;20067;-78
2022/03/25 02:32:10;;;;;;;28.73;17.00;;;9.20;82.40;;;;;;5052484;28;20036;-77
2022/03/25 02:34:37;;;;;;;29.73;16.88;;;9.20;81.30;;;;;;5052423;28;20033;-77
2022/03/25 02:37:04;;;;;;;31.30;17.27;;;9.20;81.40;;;;;;5052606;28;20055;-70
2022/03/25 02:39:31;;;;;;;29.98;17.02;;;9.30;80.90;;;;;;5052789;28;20040;-75
2022/03/25 02:41:57;;;;;;;29.95;17.70;;;9.30;81.70;;;;;;5052613;28;20029;-76
2022/03/25 02:44:23;;;;;;;35.17;20.30;;;9.30;82.70;;;;;;5052332;28;20132;-73
2022/03/25 02:46:49;;;;;;;34.22;18.98;;;9.30;84.20;;;;;;5052418;28;20044;-75
2022/03/25 02:49:16;;;;;;;34.15;17.98;;;9.10;84.50;;;;;;5052195;28;20400;-78
2022/03/25 02:51:41;;;;;;;30.52;17.35;;;9.30;81.90;;;;;;5052015;28;20129;-78
2022/03/25 02:54:08;;;;;;;31.15;16.95;;;9.40;80.90;;;;;;5052204;28;20508;-71
2022/03/25 02:56:34;;;;;;;32.17;18.15;;;9.60;80.40;;;;;;5051919;28;20041;-70
2022/03/25 02:58:59;;;;;;;29.58;17.45;;;9.50;81.90;;;;;;5052013;28;20094;-76
2022/03/25 03:01:27;;;;;;;34.30;20.27;;;9.30;82.20;;;;;;5055294;28;20040;-77
2022/03/25 03:03:53;;;;;;;40.95;21.05;;;9.20;86.00;;;;;;5055755;28;20072;-78
2022/03/25 03:06:19;;;;;;;31.27;19.55;;;9.10;86.40;;;;;;5056159;28;20125;-72
2022/03/25 03:08:45;;;;;;;32.17;19.00;;;9.20;86.20;;;;;;5055850;28;20033;-77
2022/03/25 03:11:11;;;;;;;30.15;17.85;;;9.40;83.40;;;;;;5045515;28;20047;-76
2022/03/25 03:13:38;;;;;;;27.15;15.88;;;9.50;81.10;;;;;;5035743;28;20076;-77
2022/03/25 03:16:05;;;;;;;30.00;16.55;;;9.80;79.80;;;;;;5035791;28;20049;-75
2022/03/25 03:18:30;;;;;;;28.45;17.48;;;10.00;78.80;;;;;;5035693;28;20041;-74
2022/03/25 03:20:57;;;;;;;31.30;17.45;;;10.10;78.10;;;;;;5035727;28;20509;-76
2022/03/25 03:23:23;;;;;;;31.80;18.20;;;10.00;78.40;;;;;;5035527;28;20037;-75
2022/03/25 03:25:48;;;;;;;31.15;17.48;;;9.90;80.60;;;;;;5035544;28;20486;-77
2022/03/25 03:28:14;;;;;;;23.25;15.82;;;9.60;81.80;;;;;;5031959;28;20034;-76
2022/03/25 03:30:40;;;;;;;32.67;18.05;;;9.40;81.10;;;;;;5016055;28;20033;-77
2022/03/25 03:33:06;;;;;;;33.85;19.33;;;9.20;82.40;;;;;;5033172;28;20044;-77
2022/03/25 03:35:34;;;;;;;30.85;18.58;;;9.30;83.60;;;;;;5036174;28;20037;-77
2022/03/25 03:38:00;;;;;;;32.80;19.02;;;9.30;82.90;;;;;;5033783;28;20041;-77
2022/03/25 03:40:26;;;;;;;36.65;18.48;;;9.30;83.50;;;;;;5030815;28;20374;-76
2022/03/25 03:42:57;;;;;;;31.63;18.70;;;8.90;84.70;;;;;;5012930;28;20557;-78
2022/03/25 03:45:26;;;;;;;33.10;18.73;;;8.40;85.50;;;;;;5011975;28;20057;-77
2022/03/25 03:47:52;;;;;;;32.67;17.27;;;8.00;87.90;;;;;;5011598;28;20060;-77
2022/03/25 03:50:20;;;;;;;30.83;17.70;;;7.70;88.00;;;;;;5013082;28;20057;-77
2022/03/25 03:52:46;;;;;;;31.25;18.25;;;7.70;88.70;;;;;;5013700;28;20038;-77
2022/03/25 03:55:12;;;;;;;34.95;19.60;;;7.90;88.40;;;;;;5013375;28;20169;-77
2022/03/25 03:57:41;;;;;;;32.80;19.35;;;7.80;88.50;;;;;;4995991;28;20037;-77
2022/03/25 04:00:12;;;;;;;31.90;18.70;;;7.70;90.00;;;;;;5013114;28;20100;-77
2022/03/25 04:02:44;;;;;;;34.70;19.38;;;7.70;90.00;;;;;;5013385;28;20041;-77
2022/03/25 04:05:10;;;;;;;33.42;18.08;;;7.90;89.10;;;;;;5012999;28;20053;-77
2022/03/25 04:07:54;;;;;;;32.45;19.45;;;7.90;89.00;;;;;;5013335;28;20505;-77
2022/03/25 04:10:21;;;;;;;28.52;17.80;;;7.90;87.50;;;;;;5012648;28;20406;-78
2022/03/25 04:12:51;;;;;;;32.20;18.17;;;8.00;87.00;;;;;;5010860;28;20042;-74
2022/03/25 04:15:17;;;;;;;29.23;18.10;;;8.30;86.50;;;;;;5012793;28;20048;-73
2022/03/25 04:17:44;;;;;;;31.30;18.40;;;8.70;93.70;;;;;;5013945;28;20053;-75
2022/03/25 04:20:13;;;;;;;35.53;20.70;;;;;;;;;;5013570;28;20041;-74
2022/03/25 04:22:39;;;;;;;31.63;19.80;;;8.50;86.50;;;;;;5012780;28;20064;-77
2022/03/25 04:25:07;;;;;;;34.30;20.38;;;8.50;86.80;;;;;;5012398;28;20537;-69
2022/03/25 04:27:34;;;;;;;35.13;20.60;;;8.60;87.20;;;;;;5013100;28;20041;-75
2022/03/25 04:29:59;;;;;;;37.35;22.52;;;8.60;87.10;;;;;;5028639;28;20397;-76
2022/03/25 04:32:26;;;;;;;33.75;21.33;;;8.80;87.80;;;;;;5031997;28;20045;-76
2022/03/25 04:34:51;;;;;;;39.58;21.50;;;8.70;87.30;;;;;;5032402;28;20688;-72
2022/03/25 04:37:17;;;;;;;34.63;20.90;;;8.80;87.70;;;;;;5033814;28;20049;-74
2022/03/25 04:39:43;;;;;;;42.47;22.33;;;8.80;87.60;;;;;;5033998;28;20045;-74
2022/03/25 04:42:09;;;;;;;38.38;22.35;;;8.90;88.10;;;;;;5033532;28;20113;-74
2022/03/25 04:44:35;;;;;;;42.67;23.38;;;8.90;88.30;;;;;;5034122;28;20045;-75
2022/03/25 04:47:01;;;;;;;39.28;21.95;;;8.80;89.00;;;;;;5033367;28;20083;-75
2022/03/25 04:49:27;;;;;;;38.80;21.17;;;8.80;88.80;;;;;;5036686;28;20091;-70
2022/03/25 04:51:53;;;;;;;42.78;21.95;;;9.00;88.50;;;;;;5034101;28;20037;-73
2022/03/25 04:54:19;;;;;;;39.25;22.83;;;9.40;92.10;;;;;;5033824;28;20033;-76
2022/03/25 04:56:44;;;;;;;39.60;23.33;;;9.30;87.30;;;;;;5033992;28;20038;-76
2022/03/25 04:59:11;;;;;;;45.15;24.42;;;9.20;87.90;;;;;;5033797;28;20408;-76
2022/03/25 05:01:37;;;;;;;41.08;24.58;;;9.20;88.30;;;;;;5034004;28;20409;-76
2022/03/25 05:04:02;;;;;;;44.10;23.85;;;9.00;88.60;;;;;;5033815;28;20056;-74
2022/03/25 05:06:28;;;;;;;38.50;22.42;;;8.10;90.60;;;;;;5033685;28;20524;-71
2022/03/25 05:08:54;;;;;;;38.33;22.17;;;8.10;91.00;;;;;;5033502;28;20049;-73
2022/03/25 05:11:20;;;;;;;41.33;24.15;;;8.40;91.10;;;;;;5033821;28;20033;-76
2022/03/25 05:13:46;;;;;;;42.00;23.65;;;8.40;91.20;;;;;;5033666;28;20037;-76
2022/03/25 05:16:11;;;;;;;42.30;23.77;;;8.00;91.50;;;;;;5032499;28;20505;-77
2022/03/25 05:18:38;;;;;;;40.65;25.30;;;7.90;91.90;;;;;;5033579;28;20516;-77
2022/03/25 05:21:05;;;;;;;42.25;24.15;;;8.10;92.00;;;;;;5033495;28;20111;-75
2022/03/25 05:23:31;;;;;;;41.85;24.48;;;8.40;91.70;;;;;;5032368;28;20069;-76
2022/03/25 05:25:56;;;;;;;43.60;25.25;;;8.30;91.60;;;;;;5033177;28;20071;-75
2022/03/25 05:28:22;;;;;;;46.90;25.88;;;8.30;91.60;;;;;;5032894;28;20042;-70
2022/03/25 05:30:48;;;;;;;45.00;23.52;;;8.30;91.80;;;;;;5033144;28;20124;-76
2022/03/25 05:33:14;;;;;;;39.50;24.65;;;8.10;91.90;;;;;;5033275;28;20081;-77
2022/03/25 05:35:39;;;;;;;43.33;24.45;;;8.40;91.60;;;;;;5032999;28;20383;-72
2022/03/25 05:38:05;;;;;;;38.30;24.10;;;8.80;91.00;;;;;;5032961;28;20511;-74
2022/03/25 05:40:32;;;;;;;44.97;24.92;;;9.00;93.30;;;;;;5033242;28;20037;-74
2022/03/25 05:42:58;;;;;;;40.58;24.08;;;8.90;91.50;;;;;;5033185;28;20034;-71
2022/03/25 05:45:24;;;;;;;45.67;26.00;;;9.00;90.40;;;;;;5033202;28;20061;-76
2022/03/25 05:47:50;;;;;;;44.67;24.25;;;9.00;90.30;;;;;;5033291;28;20447;-74
2022/03/25 05:50:16;;;;;;;40.47;23.25;;;9.10;88.60;;;;;;5052973;28;20106;-77
2022/03/25 05:52:42;;;;;;;40.33;22.77;;;9.00;89.00;;;;;;5052652;28;20047;-76
2022/03/25 05:55:10;;;;;;;44.88;22.58;;;9.00;89.10;;;;;;5052897;28;20120;-74
2022/03/25 05:57:35;;;;;;;40.53;22.92;;;8.80;89.70;;;;;;5053105;28;20116;-74
2022/03/25 06:00:03;;;;;;;36.72;21.60;;;8.60;90.10;;;;;;5053056;28;20516;-75
2022/03/25 06:02:29;;;;;;;35.42;21.02;;;8.70;90.10;;;;;;5052881;28;20124;-76
2022/03/25 06:04:55;;;;;;;41.20;22.55;;;8.70;90.20;;;;;;5052789;28;20487;-76
2022/03/25 06:07:22;;;;;;;38.63;22.60;;;8.40;90.70;;;;;;5052836;28;20099;-76
2022/03/25 06:09:48;;;;;;;43.05;23.55;;;8.20;91.20;;;;;;5041891;28;20409;-70
2022/03/25 06:12:14;;;;;;;37.67;22.60;;;8.10;91.30;;;;;;5032897;28;20120;-75
2022/03/25 06:14:40;;;;;;;34.10;21.83;;;8.10;91.10;;;;;;5032921;28;20076;-76
2022/03/25 06:17:06;;;;;;;38.00;22.88;;;8.20;91.00;;;;;;5032847;28;20073;-70
2022/03/25 06:19:32;;;;;;;39.75;21.35;;;8.30;90.50;;;;;;5032746;28;20527;-75
2022/03/25 06:21:58;;;;;;;34.40;21.27;;;8.20;90.30;;;;;;5032218;28;20452;-75
2022/03/25 06:24:24;;;;;;;35.28;21.27;;;8.10;90.50;;;;;;5032149;28;20056;-71
2022/03/25 06:26:52;;;;;;;43.42;23.73;;;8.10;90.70;;;;;;5032300;28;20029;-74
2022/03/25 06:29:21;;;;;;;42.05;22.55;;;8.30;90.40;;;;;;5032425;28;20043;-76
2022/03/25 06:31:47;;;;;;;36.47;21.42;;;8.60;90.90;;;;;;5032030;28;20029;-72
2022/03/25 06:34:14;;;;;;;34.78;20.67;;;8.60;91.30;;;;;;5032209;28;20068;-73
2022/03/25 06:36:42;;;;;;;30.33;19.77;;;8.70;91.20;;;;;;5035700;28;20033;-69
2022/03/25 06:39:07;;;;;;;35.20;19.00;;;8.90;90.80;;;;;;5036097;28;20053;-69
2022/03/25 06:41:33;;;;;;;32.65;19.30;;;9.00;90.50;;;;;;5036391;28;20088;-77
2022/03/25 06:44:01;;;;;;;33.08;20.40;;;9.20;90.60;;;;;;5036274;28;20033;-77
2022/03/25 06:46:26;;;;;;;28.55;18.40;;;9.30;90.00;;;;;;5036309;28;20108;-76
2022/03/25 06:48:52;;;;;;;31.77;17.70;;;9.40;90.30;;;;;;5035964;28;20517;-77
2022/03/25 06:51:18;;;;;;;26.92;16.95;;;9.50;90.40;;;;;;5036052;28;20068;-77
2022/03/25 06:53:44;;;;;;;29.45;18.05;;;9.60;89.90;;;;;;5035952;28;20120;-77
2022/03/25 06:56:11;;;;;;;38.28;18.45;;;9.60;90.30;;;;;;5036224;28;20157;-70
2022/03/25 06:58:37;;;;;;;26.38;17.50;;;9.70;90.00;;;;;;5036023;28;20029;-76
2022/03/25 07:01:05;;;;;;;26.70;17.10;;;9.80;90.10;;;;;;5035458;28;20447;-71
2022/03/25 07:03:32;;;;;;;27.40;18.50;;;10.00;89.60;;;;;;5035983;28;20038;-72
2022/03/25 07:06:00;;;;;;;34.08;20.98;;;9.70;90.70;;;;;;5036109;28;20045;-74
2022/03/25 07:08:28;;;;;;;33.25;21.00;;;9.60;91.40;;;;;;5038393;28;20508;-74
2022/03/25 07:10:54;;;;;;;37.85;22.48;;;9.80;91.50;;;;;;5035988;28;20042;-71
2022/03/25 07:13:20;;;;;;;34.17;21.02;;;10.00;91.50;;;;;;5034783;28;20041;-74
2022/03/25 07:15:46;;;;;;;31.13;19.95;;;10.70;92.20;;;;;;5035591;28;20044;-71
2022/03/25 07:18:12;;;;;;;27.15;17.38;;;11.00;91.20;;;;;;5034193;28;20663;-75
2022/03/25 07:20:38;;;;;;;33.00;18.13;;;11.10;90.60;;;;;;5035431;28;20045;-75
2022/03/25 07:23:04;;;;;;;34.05;19.25;;;11.10;89.90;;;;;;5035903;28;20077;-73
2022/03/25 07:25:31;;;;;;;36.17;19.52;;;11.40;89.70;;;;;;5035289;28;20445;-71
2022/03/25 07:27:57;;;;;;;29.75;19.88;;;11.20;90.00;;;;;;5034337;28;20053;-74
2022/03/25 07:30:23;;;;;;;33.45;20.80;;;10.90;90.10;;;;;;5035565;28;20107;-75
2022/03/25 07:32:49;;;;;;;33.38;20.13;;;12.00;90.80;;;;;;5035701;28;20127;-72
2022/03/25 07:35:16;;;;;;;33.20;19.55;;;12.20;90.90;;;;;;5035741;28;20490;-75
2022/03/25 07:37:42;;;;;;;28.83;18.60;;;12.50;90.10;;;;;;5035691;28;20121;-75
2022/03/25 07:40:10;;;;;;;30.92;19.70;;;12.60;89.80;;;;;;5035659;28;20045;-72
2022/03/25 07:42:37;;;;;;;24.67;17.70;;;12.70;90.40;;;;;;5035189;28;20072;-74
2022/03/25 07:45:05;;;;;;;29.23;16.52;;;13.00;90.30;;;;;;5035238;28;20049;-75
2022/03/25 07:47:32;;;;;;;27.40;16.38;;;13.60;93.70;;;;;;5034470;28;20123;-74
2022/03/25 07:49:59;;;;;;;25.48;16.13;;;13.70;89.20;;;;;;5052742;28;20040;-71
2022/03/25 07:52:25;;;;;;;26.55;15.88;;;13.50;88.80;;;;;;5055315;28;20508;-75
2022/03/25 07:54:52;;;;;;;25.55;16.15;;;13.60;88.50;;;;;;5055088;28;20541;-73
2022/03/25 07:57:18;;;;;;;25.65;14.25;;;13.80;90.50;;;;;;5055083;28;20116;-74
2022/03/25 07:59:44;;;;;;;21.50;14.20;;;13.80;90.20;;;;;;5055035;28;20086;-74
2022/03/25 08:02:11;;;;;;;23.02;14.13;;;14.00;90.50;;;;;;5055006;28;20029;-75
2022/03/25 08:04:37;;;;;;;19.42;13.30;;;14.20;88.80;;;;;;5054916;28;20110;-75
2022/03/25 08:07:03;;;;;;;25.98;15.00;;;14.20;90.30;;;;;;5054575;28;20032;-71
2022/03/25 08:09:29;;;;;;;25.42;14.70;;;14.40;87.30;;;;;;5054617;28;20041;-75
2022/03/25 08:11:55;;;;;;;21.08;13.82;;;14.30;89.20;;;;;;5054788;28;20040;-74
2022/03/25 08:14:21;;;;;;;21.77;14.23;;;14.60;88.70;;;;;;5054534;28;20037;-75
2022/03/25 08:16:47;;;;;;;23.13;13.57;;;14.70;90.10;;;;;;5054835;28;20041;-76
2022/03/25 08:19:13;;;;;;;23.80;14.75;;;14.70;88.50;;;;;;5054576;28;20037;-75
2022/03/25 08:21:39;;;;;;;25.15;15.57;;;15.10;88.30;;;;;;5054979;28;20082;-75
2022/03/25 08:29:35;;;;;;;26.27;14.95;;;15.90;86.20;;;;;;5054517;28;20039;-74
2022/03/25 08:32:02;;;;;;;24.75;15.85;;;15.80;85.20;;;;;;5054068;28;20037;-74
2022/03/25 08:34:28;;;;;;;27.42;16.50;;;15.90;86.00;;;;;;5054190;28;20033;-75
2022/03/25 08:36:54;;;;;;;23.40;14.77;;;15.70;81.10;;;;;;5033877;28;20040;-76
2022/03/25 08:39:22;;;;;;;26.33;15.02;;;15.70;84.80;;;;;;5031990;28;20045;-75
2022/03/25 08:41:48;;;;;;;27.10;14.13;;;15.50;85.10;;;;;;5032451;28;20044;-70
2022/03/25 08:44:14;;;;;;;25.20;13.55;;;15.60;86.40;;;;;;5034081;28;20049;-71
2022/03/25 08:46:40;;;;;;;21.90;13.27;;;15.90;86.30;;;;;;5034335;28;20040;-71
2022/03/25 08:49:07;;;;;;;22.75;14.48;;;16.00;86.20;;;;;;5034245;28;20045;-71
2022/03/25 08:51:33;;;;;;;22.33;12.77;;;16.10;85.40;;;;;;5036526;28;20050;-75
2022/03/25 08:53:58;;;;;;;24.33;14.30;;;16.30;85.70;;;;;;5033880;28;20520;-70
2022/03/25 08:56:25;;;;;;;18.40;13.13;;;16.20;85.10;;;;;;5034087;28;20041;-76
2022/03/25 08:58:54;;;;;;;25.27;14.02;;;16.60;85.60;;;;;;5033906;28;20041;-75
2022/03/25 09:01:22;;;;;;;19.38;12.88;;;16.30;84.00;;;;;;5033937;28;20393;-70
2022/03/25 09:03:49;;;;;;;23.60;14.68;;;16.50;85.00;;;;;;5033779;28;20072;-71
2022/03/25 09:06:14;;;;;;;25.17;14.32;;;16.80;83.30;;;;;;5033452;28;20034;-70
2022/03/25 09:08:40;;;;;;;23.65;14.70;;;16.50;82.30;;;;;;5033561;28;20041;-74
2022/03/25 09:11:06;;;;;;;20.85;13.70;;;16.30;84.10;;;;;;5033684;28;20511;-74
2022/03/25 09:13:32;;;;;;;23.42;14.50;;;16.60;83.90;;;;;;5033501;28;20068;-73
2022/03/25 09:15:58;;;;;;;20.55;13.55;;;16.80;83.80;;;;;;5033602;28;20052;-75
2022/03/25 09:18:24;;;;;;;26.60;14.57;;;17.00;83.70;;;;;;5033594;28;20405;-75
2022/03/25 09:20:50;;;;;;;25.92;14.65;;;17.00;82.70;;;;;;5033463;28;20049;-75
2022/03/25 09:23:17;;;;;;;22.75;14.88;;;17.30;83.00;;;;;;5033532;28;20037;-75
2022/03/25 09:25:43;;;;;;;22.83;14.02;;;17.50;82.60;;;;;;5033494;28;20053;-71
2022/03/25 09:28:09;;;;;;;26.05;15.52;;;17.30;81.70;;;;;;5033593;28;20033;-73
2022/03/25 09:30:35;;;;;;;25.92;14.20;;;17.50;82.00;;;;;;5033498;28;20041;-70
2022/03/25 09:33:01;;;;;;;20.80;13.85;;;17.50;82.10;;;;;;5033439;28;20076;-74
2022/03/25 09:35:26;;;;;;;18.83;12.65;;;16.90;83.00;;;;;;5015879;28;20052;-75
2022/03/25 09:37:52;;;;;;;20.85;12.95;;;17.00;84.50;;;;;;5033408;28;20501;-74
2022/03/25 09:40:25;;;;;;;24.15;15.15;;;17.10;86.70;;;;;;5015607;28;20043;-73
2022/03/25 09:42:53;;;;;;;27.10;15.50;;;16.80;84.70;;;;;;5033025;28;20527;-74
2022/03/25 09:45:21;;;;;;;22.80;14.93;;;16.90;86.00;;;;;;5035558;28;20057;-74
2022/03/25 09:47:48;;;;;;;30.65;18.63;;;17.30;86.50;;;;;;5033162;28;20044;-71
2022/03/25 09:50:17;;;;;;;26.60;18.05;;;17.40;84.50;;;;;;5052848;28;20053;-73
2022/03/25 09:52:44;;;;;;;26.30;18.05;;;17.50;84.90;;;;;;5053038;28;20032;-73
2022/03/25 09:55:11;;;;;;;32.75;20.02;;;17.90;85.20;;;;;;5035071;28;20484;-72
2022/03/25 09:57:37;;;;;;;32.13;18.20;;;18.00;85.60;;;;;;5053008;28;20187;-71
2022/03/25 10:00:06;;;;;;;27.98;18.13;;;17.90;83.10;;;;;;5052955;28;20466;-73
2022/03/25 10:02:32;;;;;;;35.35;20.05;;;18.20;83.40;;;;;;5052504;28;20037;-73
2022/03/25 10:04:58;;;;;;;32.58;21.50;;;18.00;83.60;;;;;;5052706;28;20109;-75
2022/03/25 10:07:27;;;;;;;31.83;20.33;;;18.30;83.20;;;;;;5052942;28;20032;-72
2022/03/25 10:10:15;;;;;;;34.17;20.05;;;18.30;83.40;;;;;;5052322;28;20052;-72
2022/03/25 10:12:44;;;;;;;35.85;21.60;;;18.60;83.10;;;;;;5052582;28;20489;-72
2022/03/25 10:15:24;;;;;;;32.22;20.60;;;18.60;81.90;;;;;;5052840;28;20378;-74
2022/03/25 10:18:01;;;;;;;34.83;20.58;;;18.40;82.90;;;;;;5052674;28;20052;-72
2022/03/25 10:20:34;;;;;;;34.55;21.52;;;18.30;82.00;;;;;;5052689;28;20041;-70
2022/03/25 10:23:09;;;;;;;34.17;20.10;;;18.30;81.60;;;;;;5052436;28;20124;-71
2022/03/25 10:25:42;;;;;;;39.75;24.10;;;18.60;82.00;;;;;;5052362;28;20552;-73
2022/03/25 10:28:40;;;;;;;41.78;22.17;;;18.40;83.30;;;;;;5052625;28;20036;-71
2022/03/25 10:31:11;;;;;;;34.25;21.45;;;18.50;82.30;;;;;;5052524;28;20060;-75
2022/03/25 10:33:48;;;;;;;37.97;22.80;;;18.80;82.20;;;;;;5052365;28;20059;-73
2022/03/25 10:36:20;;;;;;;37.25;23.17;;;18.50;81.00;;;;;;5052671;28;20484;-71
2022/03/25 10:39:05;;;;;;;35.85;22.00;;;18.70;81.40;;;;;;5052886;28;20089;-75
2022/03/25 10:41:39;;;;;;;32.92;22.13;;;18.30;79.20;;;;;;5052440;28;20033;-75
2022/03/25 10:44:06;;;;;;;37.10;23.42;;;17.60;79.10;;;;;;5052402;28;20061;-73
2022/03/25 10:46:46;;;;;;;34.72;21.42;;;17.20;79.00;;;;;;5052513;28;20058;-70
2022/03/25 10:49:16;;;;;;;33.65;22.20;;;17.10;79.40;;;;;;5052337;28;20128;-74
2022/03/25 10:51:44;;;;;;;34.30;21.45;;;17.40;79.10;;;;;;5052515;28;20453;-74
2022/03/25 10:54:14;;;;;;;34.95;22.05;;;17.40;79.40;;;;;;5052455;28;20047;-72
2022/03/25 10:56:46;;;;;;;39.10;22.38;;;16.50;78.20;;;;;;5052440;28;20049;-75
2022/03/25 10:59:29;;;;;;;36.70;23.10;;;16.40;79.70;;;;;;5047725;28;20148;-74
2022/03/25 11:02:00;;;;;;;36.78;21.65;;;16.80;79.60;;;;;;5032523;28;20042;-75
2022/03/25 11:04:26;;;;;;;;;;;17.40;80.50;;;;;;5032908;28;20053;-73
2022/03/25 11:06:53;;;;;;;38.58;23.05;;;16.70;79.30;;;;;;5032188;28;19954;-73
2022/03/25 11:09:20;;;;;;;42.38;23.27;;;16.90;79.50;;;;;;5032019;28;20572;-74
2022/03/25 11:11:47;;;;;;;40.63;23.45;;;17.10;79.10;;;;;;5031795;28;20046;-73
2022/03/25 11:14:14;;;;;;;39.05;24.60;;;17.50;77.60;;;;;;5032112;28;20044;-74
2022/03/25 11:16:44;;;;;;;35.10;22.48;;;16.90;78.60;;;;;;5031106;28;20049;-74
2022/03/25 11:19:11;;;;;;;38.10;22.83;;;17.60;77.20;;;;;;5030037;28;20044;-74
2022/03/25 11:21:44;;;;;;;35.65;22.98;;;17.60;76.00;;;;;;5030572;28;20499;-72
2022/03/25 11:24:24;;;;;;;38.47;22.77;;;17.60;80.00;;;;;;5033466;28;20041;-73
2022/03/25 11:26:53;;;;;;;34.85;22.33;;;18.10;77.40;;;;;;5034264;28;20045;-76
2022/03/25 11:29:26;;;;;;;40.08;22.92;;;18.10;75.90;;;;;;5035249;28;20041;-76
2022/03/25 11:32:11;;;;;;;45.25;23.95;;;18.00;76.90;;;;;;5033936;28;20119;-76
2022/03/25 11:35:00;;;;;;;31.77;20.33;;;17.80;72.70;;;;;;5033480;28;20029;-72
2022/03/25 11:37:31;;;;;;;40.85;23.00;;;17.50;75.50;;;;;;5024420;28;20086;-73
2022/03/25 11:40:16;;;;;;;35.25;21.67;;;18.00;77.30;;;;;;5052566;28;20541;-72
2022/03/25 11:42:48;;;;;;;37.20;21.20;;;18.20;76.90;;;;;;5054698;28;20040;-75
2022/03/25 11:45:32;;;;;;;37.58;22.98;;;18.00;74.00;;;;;;5054985;28;20140;-71
2022/03/25 11:48:04;;;;;;;35.97;20.35;;;17.20;73.30;;;;;;5054925;28;20045;-74
2022/03/25 11:50:31;;;;;;;35.50;20.42;;;17.60;71.20;;;;;;5055263;28;20037;-74
2022/03/25 11:52:58;;;;;;;32.33;20.08;;;17.60;68.30;;;;;;5053110;28;20290;-74
2022/03/25 11:55:24;;;;;;;31.20;20.45;;;18.00;70.50;;;;;;5052385;28;20056;-71
2022/03/25 11:57:50;;;;;;;35.00;21.20;;;18.30;73.20;;;;;;5052938;28;20049;-73
2022/03/25 12:00:22;;;;;;;40.75;22.98;;;18.80;77.20;;;;;;5052767;28;20033;-74
2022/03/25 12:03:06;;;;;;;37.10;22.10;;;18.50;75.90;;;;;;5053406;28;20056;-70
2022/03/25 12:05:33;;;;;;;36.00;21.88;;;18.50;73.90;;;;;;5052647;28;20056;-70
2022/03/25 12:08:28;;;;;;;39.80;22.42;;;18.40;71.50;;;;;;5052732;28;20086;-70
2022/03/25 12:10:55;;;;;;;42.17;22.42;;;18.00;72.20;;;;;;5036978;28;20037;-70
2022/03/25 12:13:23;;;;;;;37.58;23.58;;;17.50;69.40;;;;;;5036826;28;20044;-73
2022/03/25 12:15:52;;;;;;;36.50;22.20;;;17.60;70.90;;;;;;5052677;28;20036;-70
2022/03/25 12:18:46;;;;;;;40.08;23.52;;;17.50;72.60;;;;;;5052696;28;20412;-74
2022/03/25 12:21:22;;;;;;;37.97;23.27;;;18.10;73.70;;;;;;5052390;28;20055;-74
2022/03/25 12:23:56;;;;;;;38.15;22.52;;;18.40;76.20;;;;;;5053447;28;20500;-74
2022/03/25 12:26:29;;;;;;;35.35;22.33;;;18.00;69.70;;;;;;5052694;28;20061;-75
2022/03/25 12:28:55;;;;;;;36.38;22.10;;;17.90;72.60;;;;;;5053006;28;20044;-70
2022/03/25 12:31:21;;;;;;;37.70;23.20;;;18.30;76.00;;;;;;5054184;28;20044;-74
2022/03/25 12:33:57;;;;;;;38.80;22.75;;;18.30;74.60;;;;;;5052651;28;20048;-75
2022/03/25 12:36:35;;;;;;;38.80;22.83;;;18.20;73.70;;;;;;5052100;28;20064;-71
2022/03/25 12:39:01;;;;;;;35.53;22.48;;;17.90;74.40;;;;;;5043214;28;20038;-76
2022/03/25 12:41:31;;;;;;;40.65;23.58;;;18.30;74.10;;;;;;5031697;28;20037;-73